createdAt,value
2022-08-17T00:00:49.208Z,100439.13
2022-08-17T00:03:23.844Z,100438.63
2022-08-17T00:05:56.087Z,100440.00
2022-08-17T00:08:27.605Z,100442.78
2022-08-17T00:10:59.464Z,100434.66
2022-08-17T00:13:31.058Z,100438.75
2022-08-17T00:16:02.931Z,100437.97
2022-08-17T00:19:01.767Z,100440.16
2022-08-17T00:21:26.612Z,100438.53
2022-08-17T00:24:18.100Z,100439.13
2022-08-17T00:26:50.087Z,100442.44
2022-08-17T00:29:21.706Z,100443.81
2022-08-17T00:31:53.973Z,100449.50
2022-08-17T00:34:25.587Z,100443.31
2022-08-17T00:36:59.910Z,100454.22
2022-08-17T00:39:31.465Z,100446.75
2022-08-17T00:42:03.401Z,100446.47
2022-08-17T00:44:34.916Z,100448.44
2022-08-17T00:47:06.756Z,100459.03
2022-08-17T00:49:38.270Z,100454.78
2022-08-17T00:52:11.732Z,100456.38
2022-08-17T00:54:43.550Z,100460.81
2022-08-17T00:57:15.609Z,100455.09
2022-08-17T00:59:47.195Z,100460.22
2022-08-17T01:02:41.409Z,100450.22
2022-08-17T01:05:14.862Z,100460.22
2022-08-17T01:07:46.701Z,100455.63
2022-08-17T01:11:00.038Z,100455.91
2022-08-17T01:13:10.720Z,100465.41
2022-08-17T01:15:42.592Z,100458.38
2022-08-17T01:18:18.355Z,100457.59
2022-08-17T01:20:49.902Z,100463.56
2022-08-17T01:23:21.825Z,100456.31
2022-08-17T01:25:53.348Z,100464.22
2022-08-17T01:28:40.701Z,100462.88
2022-08-17T01:31:16.679Z,100460.75
2022-08-17T01:33:48.584Z,100461.63
2022-08-17T01:36:20.378Z,100468.66
2022-08-17T01:38:51.942Z,100463.81
2022-08-17T01:41:23.497Z,100470.84
2022-08-17T01:43:55.091Z,100469.50
2022-08-17T01:46:27.438Z,100469.22
2022-08-17T01:48:59.366Z,100471.94
2022-08-17T01:51:33.116Z,100471.41
2022-08-17T01:54:07.737Z,100471.41
2022-08-17T01:56:39.664Z,100468.72
2022-08-17T01:59:11.232Z,100476.81
2022-08-17T02:01:43.799Z,100474.69
2022-08-17T02:04:15.400Z,100462.28
2022-08-17T02:06:54.236Z,100470.16
2022-08-17T02:09:29.543Z,100475.06
2022-08-17T02:12:38.497Z,100473.50
2022-08-17T02:14:55.814Z,100478.34
2022-08-17T02:17:27.746Z,100473.50
2022-08-17T02:19:59.335Z,100478.22
2022-08-17T02:22:31.332Z,100473.91
2022-08-17T02:25:02.947Z,100469.09
2022-08-17T02:27:34.804Z,100476.66
2022-08-17T02:30:06.362Z,100474.25
2022-08-17T02:32:58.363Z,100476.94
2022-08-17T02:35:29.894Z,100478.84
2022-08-17T02:38:02.178Z,100466.13
2022-08-17T02:40:36.041Z,100470.47
2022-08-17T02:43:08.565Z,100471.25
2022-08-17T02:45:40.090Z,100471.25
2022-08-17T02:48:12.119Z,100465.06
2022-08-17T02:50:43.620Z,100464.56
2022-08-17T02:53:15.468Z,100465.47
2022-08-17T02:55:47.008Z,100464.13
2022-08-17T02:58:34.786Z,100467.94
2022-08-17T03:01:07.723Z,100468.25
2022-08-17T03:03:39.274Z,100466.13
2022-08-17T03:06:11.161Z,100464.50
2022-08-17T03:08:42.666Z,100268.81
2022-08-17T03:11:14.513Z,100463.66
2022-08-17T03:13:46.078Z,100459.63
2022-08-17T03:16:18.068Z,100468.31
2022-08-17T03:18:49.612Z,100465.59
2022-08-17T03:21:21.512Z,100474.00
2022-08-17T03:23:54.739Z,100464.00
2022-08-17T03:26:29.801Z,100470.47
2022-08-17T03:29:01.496Z,100468.59
2022-08-17T03:31:33.286Z,100463.47
2022-08-17T03:34:08.760Z,100464.00
2022-08-17T03:36:40.586Z,100457.78
2022-08-17T03:39:12.153Z,100471.28
2022-08-17T03:41:44.159Z,100468.59
2022-08-17T03:44:15.700Z,100455.59
2022-08-17T03:47:06.815Z,100463.44
2022-08-17T03:49:57.080Z,100458.53
2022-08-17T03:52:47.516Z,100457.47
2022-08-17T03:55:42.158Z,100455.56
2022-08-17T03:58:13.928Z,100461.81
2022-08-17T04:00:46.277Z,100462.31
2022-08-17T04:03:18.110Z,100460.16
2022-08-17T04:05:49.634Z,100454.19
2022-08-17T04:08:21.522Z,100461.44
2022-08-17T04:10:53.048Z,100464.09
2022-08-17T04:13:25.726Z,100466.47
2022-08-17T04:15:59.267Z,100468.03
2022-08-17T04:18:31.259Z,100472.88
2022-08-17T04:21:05.144Z,100467.69
2022-08-17T04:23:38.202Z,100472.81
2022-08-17T04:26:09.782Z,100477.88
2022-08-17T04:29:01.552Z,100481.34
2022-08-17T04:31:33.925Z,100479.19
2022-08-17T04:34:05.857Z,100478.34
2022-08-17T04:36:37.379Z,100476.63
2022-08-17T04:39:09.270Z,100486.84
2022-08-17T04:42:01.305Z,100487.00
2022-08-17T04:44:37.779Z,100495.59
2022-08-17T04:47:10.627Z,100495.47
2022-08-17T04:49:45.319Z,100490.47
2022-08-17T04:52:32.226Z,100489.25
2022-08-17T04:55:08.645Z,100489.59
2022-08-17T04:57:44.550Z,100498.13
2022-08-17T05:00:16.695Z,100500.41
2022-08-17T05:02:50.258Z,100499.38
2022-08-17T05:05:22.287Z,100498.16
2022-08-17T05:07:57.108Z,100498.78
2022-08-17T05:10:28.625Z,100503.44
2022-08-17T05:13:00.524Z,100363.94
2022-08-17T05:15:36.376Z,100506.81
2022-08-17T05:18:08.309Z,100509.06
2022-08-17T05:20:39.846Z,100510.69
2022-08-17T05:23:11.703Z,100509.19
2022-08-17T05:25:43.307Z,100513.94
2022-08-17T05:28:24.133Z,100517.41
2022-08-17T05:30:58.112Z,100515.31
2022-08-17T05:33:29.971Z,100519.22
2022-08-17T05:36:01.493Z,100520.72
2022-08-17T05:38:33.432Z,100525.72
2022-08-17T05:41:04.975Z,100518.88
2022-08-17T05:43:36.869Z,100514.28
2022-08-17T05:46:08.381Z,100523.88
2022-08-17T05:48:40.468Z,100525.91
2022-08-17T05:51:12.040Z,100522.00
2022-08-17T05:53:43.590Z,100531.72
2022-08-17T05:56:29.638Z,100526.03
2022-08-17T05:59:02.256Z,100526.75
2022-08-17T06:01:33.811Z,100529.50
2022-08-17T06:04:05.765Z,100540.09
2022-08-17T06:06:38.141Z,100533.75
2022-08-17T06:09:09.984Z,100538.41
2022-08-17T06:11:41.489Z,100543.94
2022-08-17T06:14:13.336Z,100548.47
2022-08-17T06:16:44.858Z,100547.13
2022-08-17T06:19:16.442Z,100548.78
2022-08-17T06:21:47.983Z,100538.22
2022-08-17T06:24:19.953Z,100535.03
2022-08-17T06:26:51.471Z,100545.47
2022-08-17T06:29:23.414Z,100541.66
2022-08-17T06:31:54.976Z,100545.19
2022-08-17T06:34:27.155Z,100543.09
2022-08-17T06:36:59.150Z,100540.34
2022-08-17T06:39:31.131Z,100546.63
2022-08-17T06:42:02.701Z,100547.69
2022-08-17T06:44:43.421Z,100550.31
2022-08-17T06:47:28.479Z,100549.25
2022-08-17T06:50:01.384Z,100548.22
2022-08-17T06:52:45.777Z,100547.41
2022-08-17T06:55:18.974Z,100544.06
2022-08-17T06:57:51.367Z,100546.34
2022-08-17T07:00:23.239Z,100544.94
2022-08-17T07:02:55.876Z,100545.81
2022-08-17T07:05:27.421Z,100546.53
2022-08-17T07:08:02.292Z,100550.59
2022-08-17T07:10:33.970Z,100550.56
2022-08-17T07:13:05.850Z,100540.34
2022-08-17T07:15:37.360Z,100546.63
2022-08-17T07:18:09.352Z,100548.09
2022-08-17T07:20:42.750Z,100546.50
2022-08-17T07:23:14.754Z,100546.72
2022-08-17T07:25:46.278Z,100542.06
2022-08-17T07:28:18.711Z,100539.44
2022-08-17T07:30:50.244Z,100539.09
2022-08-17T07:33:22.943Z,100547.16
2022-08-17T07:35:54.469Z,100548.28
2022-08-17T07:38:28.580Z,100547.03
2022-08-17T07:41:05.105Z,100544.44
2022-08-17T07:43:36.679Z,100546.78
2022-08-17T07:46:27.482Z,100553.91
2022-08-17T07:48:59.291Z,100549.94
2022-08-17T07:51:31.206Z,100552.16
2022-08-17T07:54:13.955Z,100548.31
2022-08-17T07:56:46.556Z,100540.31
2022-08-17T07:59:18.345Z,100546.13
2022-08-17T08:01:57.470Z,100549.19
2022-08-17T08:07:21.304Z,100543.53
2022-08-17T08:09:53.245Z,100547.03
2022-08-17T08:12:24.766Z,100542.75
2022-08-17T08:15:05.445Z,100554.53
2022-08-17T08:17:37.023Z,100547.59
2022-08-17T08:20:42.515Z,100553.38
2022-08-17T08:23:00.776Z,100558.84
2022-08-17T08:25:33.217Z,100561.78
2022-08-17T08:28:05.608Z,100561.88
2022-08-17T08:30:37.423Z,100555.78
2022-08-17T08:33:08.976Z,100554.63
2022-08-17T08:35:40.796Z,100549.84
2022-08-17T08:38:12.335Z,100548.09
2022-08-17T08:40:44.222Z,100543.28
2022-08-17T08:43:15.724Z,100550.28
2022-08-17T08:45:47.562Z,100543.88
2022-08-17T08:48:46.114Z,100545.19
2022-08-17T08:51:10.934Z,100546.19
2022-08-17T08:53:42.787Z,100547.00
2022-08-17T08:56:14.280Z,100543.06
2022-08-17T08:58:47.688Z,100537.25
2022-08-17T09:01:19.290Z,100537.31
2022-08-17T09:03:53.065Z,100538.44
2022-08-17T09:06:32.488Z,100543.78
2022-08-17T09:09:11.779Z,100548.31
2022-08-17T09:12:01.823Z,100545.63
2022-08-17T09:14:46.625Z,100539.13
2022-08-17T09:17:19.225Z,100540.22
2022-08-17T09:19:51.186Z,100543.94
2022-08-17T09:22:22.969Z,100534.88
2022-08-17T09:24:57.117Z,100528.09
2022-08-17T09:27:29.230Z,100534.56
2022-08-17T09:30:00.804Z,100522.56
2022-08-17T09:32:32.616Z,100532.53
2022-08-17T09:35:04.180Z,100529.34
2022-08-17T09:37:36.348Z,100523.13
2022-08-17T09:40:09.666Z,100522.41
2022-08-17T09:42:41.705Z,100528.56
2022-08-17T09:45:13.545Z,100538.44
2022-08-17T09:47:46.935Z,100532.47
2022-08-17T09:50:20.253Z,100535.34
2022-08-17T09:53:12.068Z,100531.00
2022-08-17T09:55:43.551Z,100528.31
2022-08-17T09:58:15.357Z,100519.59
2022-08-17T10:00:46.926Z,100518.78
2022-08-17T10:03:20.290Z,100522.34
2022-08-17T10:05:56.888Z,100518.78
2022-08-17T10:08:29.010Z,100516.75
2022-08-17T10:11:00.525Z,100511.56
2022-08-17T10:13:32.355Z,100512.44
2022-08-17T10:16:07.748Z,100510.06
2022-08-17T10:18:39.603Z,100510.88
2022-08-17T10:21:30.142Z,100510.06
2022-08-17T10:24:21.946Z,100519.59
2022-08-17T10:26:57.232Z,100521.09
2022-08-17T10:29:29.111Z,100518.00
2022-08-17T10:32:04.177Z,100513.59
2022-08-17T10:34:40.414Z,100517.50
2022-08-17T10:37:13.658Z,100509.94
2022-08-17T10:39:52.022Z,100508.84
2022-08-17T10:42:30.144Z,100510.31
2022-08-17T10:45:03.903Z,100514.28
2022-08-17T10:47:54.705Z,100517.19
2022-08-17T10:50:26.822Z,100511.53
2022-08-17T10:52:58.938Z,100512.41
2022-08-17T10:55:30.449Z,100516.00
2022-08-17T10:58:02.026Z,100515.59
2022-08-17T11:00:33.580Z,100505.59
2022-08-17T11:03:05.368Z,100508.34
2022-08-17T11:05:40.151Z,100503.22
2022-08-17T11:08:15.366Z,100494.44
2022-08-17T11:10:52.149Z,100488.56
2022-08-17T11:13:24.554Z,100492.59
2022-08-17T11:16:00.654Z,100489.34
2022-08-17T11:18:33.954Z,100483.84
2022-08-17T11:21:05.481Z,100485.84
2022-08-17T11:23:37.518Z,100487.84
2022-08-17T11:26:09.036Z,100473.56
2022-08-17T11:28:40.557Z,100479.75
2022-08-17T11:31:12.140Z,100486.25
2022-08-17T11:33:45.162Z,100484.72
2022-08-17T11:36:16.682Z,100475.69
2022-08-17T11:38:48.223Z,100477.59
2022-08-17T11:41:20.228Z,100483.63
2022-08-17T11:43:52.113Z,100472.03
2022-08-17T11:46:23.623Z,100465.03
2022-08-17T11:49:14.221Z,100464.38
2022-08-17T11:51:45.984Z,100465.72
2022-08-17T11:54:32.696Z,100470.34
2022-08-17T11:57:06.300Z,100469.63
2022-08-17T11:59:39.973Z,100464.91
2022-08-17T12:02:11.557Z,100477.56
2022-08-17T12:04:47.179Z,100468.38
2022-08-17T12:07:18.796Z,100466.41
2022-08-17T12:09:50.304Z,100462.09
2022-08-17T12:12:22.145Z,100468.22
2022-08-17T12:15:10.964Z,100468.44
2022-08-17T12:17:46.923Z,100468.06
2022-08-17T12:20:21.428Z,100470.41
2022-08-17T12:22:55.069Z,100462.91
2022-08-17T12:25:26.601Z,100466.03
2022-08-17T12:28:06.457Z,100467.97
2022-08-17T12:30:38.670Z,100470.28
2022-08-17T12:33:11.321Z,100466.59
2022-08-17T12:35:43.359Z,100461.59
2022-08-17T12:38:30.379Z,100466.47
2022-08-17T12:41:24.368Z,100466.47
2022-08-17T12:43:55.944Z,100462.03
2022-08-17T12:46:27.430Z,100455.66
2022-08-17T12:49:00.238Z,100444.19
2022-08-17T12:51:31.900Z,100451.00
2022-08-17T12:54:03.714Z,100452.13
2022-08-17T12:56:35.216Z,100441.50
2022-08-17T12:59:07.435Z,100433.09
2022-08-17T13:01:40.160Z,100421.31
2022-08-17T13:04:12.118Z,100424.84
2022-08-17T13:06:43.641Z,100427.56
2022-08-17T13:09:15.193Z,100428.31
2022-08-17T13:11:47.018Z,100425.97
2022-08-17T13:14:18.681Z,100429.47
2022-08-17T13:16:50.242Z,100425.78
2022-08-17T13:19:40.059Z,100420.53
2022-08-17T13:22:13.011Z,100419.59
2022-08-17T13:24:44.525Z,100419.41
2022-08-17T13:27:18.031Z,100421.88
2022-08-17T13:29:51.445Z,100418.47
2022-08-17T13:32:26.838Z,100418.53
2022-08-17T13:35:12.154Z,100417.34
2022-08-17T13:37:47.404Z,100420.91
2022-08-17T13:40:19.035Z,100412.25
2022-08-17T13:42:53.081Z,100416.28
2022-08-17T13:45:35.695Z,100419.22
2022-08-17T13:48:08.836Z,100421.69
2022-08-17T13:50:44.061Z,100427.25
2022-08-17T13:53:15.876Z,100429.63
2022-08-17T13:55:47.489Z,100415.38
2022-08-17T13:58:19.351Z,100413.38
2022-08-17T14:00:51.747Z,100420.91
2022-08-17T14:03:23.645Z,100422.50
2022-08-17T14:05:55.165Z,100414.53
2022-08-17T14:08:31.360Z,100413.78
2022-08-17T14:11:02.944Z,100413.78
2022-08-17T14:13:35.517Z,100405.88
2022-08-17T14:16:07.028Z,100403.91
2022-08-17T14:18:55.691Z,100405.47
2022-08-17T14:21:29.117Z,100407.03
2022-08-17T14:24:00.620Z,100404.66
2022-08-17T14:26:33.454Z,100412.50
2022-08-17T14:29:05.206Z,100395.69
2022-08-17T14:31:52.174Z,100404.53
2022-08-17T14:34:25.923Z,100403.28
2022-08-17T14:36:57.925Z,100405.19
2022-08-17T14:39:29.527Z,100400.75
2022-08-17T14:42:01.329Z,100394.66
2022-08-17T14:44:32.859Z,100402.22
2022-08-17T14:47:04.688Z,100399.34
2022-08-17T14:49:36.179Z,100398.03
2022-08-17T14:52:07.994Z,100393.28
2022-08-17T14:54:45.178Z,100400.34
2022-08-17T14:57:23.361Z,100395.72
2022-08-17T15:00:05.489Z,100390.69
2022-08-17T15:02:37.437Z,100392.34
2022-08-17T15:05:08.957Z,100382.88
2022-08-17T15:07:40.900Z,100387.25
2022-08-17T15:10:12.423Z,100395.47
2022-08-17T15:12:44.244Z,100396.63
2022-08-17T15:15:15.781Z,100399.03
2022-08-17T15:17:47.383Z,100393.25
2022-08-17T15:20:18.937Z,100388.47
2022-08-17T15:22:50.844Z,100388.72
2022-08-17T15:25:22.418Z,100385.00
2022-08-17T15:27:56.178Z,100397.38
2022-08-17T15:30:28.100Z,100395.09
2022-08-17T15:32:59.677Z,100394.75
2022-08-17T15:35:32.535Z,100388.38
2022-08-17T15:38:10.618Z,100390.09
2022-08-17T15:40:43.360Z,100378.94
2022-08-17T15:43:14.933Z,100379.56
2022-08-17T15:45:52.907Z,100385.97
2022-08-17T15:48:41.914Z,100373.78
2022-08-17T15:51:14.145Z,100381.69
2022-08-17T15:53:45.709Z,100372.53
2022-08-17T15:56:17.688Z,100368.53
2022-08-17T15:58:49.242Z,100365.25
2022-08-17T16:02:22.382Z,100373.38
2022-08-17T16:04:29.737Z,100374.06
2022-08-17T16:07:02.450Z,100370.69
2022-08-17T16:09:34.027Z,100365.25
2022-08-17T16:12:05.841Z,100368.91
2022-08-17T16:14:37.400Z,100364.56
2022-08-17T16:17:29.649Z,100376.47
2022-08-17T16:20:01.647Z,100368.66
2022-08-17T16:22:33.835Z,100365.13
2022-08-17T16:25:05.358Z,100368.53
2022-08-17T16:27:37.156Z,100365.75
2022-08-17T16:30:11.402Z,100367.38
2022-08-17T16:32:45.482Z,100354.72
2022-08-17T16:35:17.387Z,100354.13
2022-08-17T16:37:48.917Z,100356.09
2022-08-17T16:40:21.237Z,100352.50
2022-08-17T16:42:52.871Z,100352.38
2022-08-17T16:45:24.783Z,100360.97
2022-08-17T16:47:59.071Z,100351.94
2022-08-17T16:50:32.247Z,100354.03
2022-08-17T16:53:03.763Z,100352.47
2022-08-17T16:55:35.996Z,100354.41
2022-08-17T16:58:08.792Z,100358.28
2022-08-17T17:00:42.420Z,100356.38
2022-08-17T17:03:19.768Z,100350.47
2022-08-17T17:05:57.864Z,100346.84
2022-08-17T17:08:30.332Z,100349.78
2022-08-17T17:11:03.578Z,100354.28
2022-08-17T17:13:40.474Z,100347.97
2022-08-17T17:16:12.382Z,100352.53
2022-08-17T17:18:43.929Z,100352.28
2022-08-17T17:21:15.893Z,100355.38
2022-08-17T17:23:47.413Z,100360.44
2022-08-17T17:26:19.494Z,100362.00
2022-08-17T17:28:51.000Z,100364.59
2022-08-17T17:31:25.556Z,100360.47
2022-08-17T17:33:57.049Z,100353.06
2022-08-17T17:36:28.927Z,100356.84
2022-08-17T17:39:00.483Z,100354.13
2022-08-17T17:41:32.429Z,100350.88
2022-08-17T17:44:03.971Z,100362.41
2022-08-17T17:46:37.756Z,100355.59
2022-08-17T17:49:11.087Z,100349.34
2022-08-17T17:52:07.744Z,100352.34
2022-08-17T17:54:34.447Z,100355.34
2022-08-17T17:57:06.186Z,100357.56
2022-08-17T17:59:41.904Z,100359.44
2022-08-17T18:02:35.807Z,100361.97
2022-08-17T18:05:07.590Z,100367.66
2022-08-17T18:07:39.397Z,100364.56
2022-08-17T18:10:29.287Z,100369.06
2022-08-17T18:13:01.640Z,100370.38
2022-08-17T18:15:33.952Z,100367.34
2022-08-17T18:18:05.816Z,100362.94
2022-08-17T18:20:46.483Z,100368.91
2022-08-17T18:23:28.606Z,100373.00
2022-08-17T18:26:02.279Z,100371.59
2022-08-17T18:28:33.877Z,100368.16
2022-08-17T18:31:05.443Z,100379.78
2022-08-17T18:33:37.033Z,100373.19
2022-08-17T18:36:09.053Z,100374.25
2022-08-17T18:38:40.703Z,100379.56
2022-08-17T18:41:12.597Z,100388.41
2022-08-17T18:43:53.757Z,100390.88
2022-08-17T18:46:28.123Z,100378.47
2022-08-17T18:49:00.701Z,100383.88
2022-08-17T18:51:40.695Z,100389.84
2022-08-17T18:54:14.301Z,100380.25
2022-08-17T18:56:59.350Z,100395.03
2022-08-17T18:59:30.950Z,100394.94
2022-08-17T19:02:10.212Z,100390.06
2022-08-17T19:04:45.391Z,100398.19
2022-08-17T19:07:17.243Z,100396.16
2022-08-17T19:09:48.774Z,100401.41
2022-08-17T19:12:24.898Z,100390.22
2022-08-17T19:14:58.442Z,100395.16
2022-08-17T19:17:30.399Z,100389.59
2022-08-17T19:20:01.945Z,100383.19
2022-08-17T19:22:34.024Z,100377.97
2022-08-17T19:25:05.542Z,100382.31
2022-08-17T19:27:41.895Z,100384.81
2022-08-17T19:30:17.844Z,100390.50
2022-08-17T19:32:50.793Z,100387.56
2022-08-17T19:35:23.502Z,100382.31
2022-08-17T19:37:55.022Z,100379.13
2022-08-17T19:40:51.034Z,100382.09
2022-08-17T19:43:19.138Z,100388.16
2022-08-17T19:45:51.092Z,100393.88
2022-08-17T19:48:22.628Z,100386.31
2022-08-17T19:50:54.535Z,100385.41
2022-08-17T19:53:41.624Z,100389.97
2022-08-17T19:56:19.035Z,100390.56
2022-08-17T19:58:51.535Z,100390.09
2022-08-17T20:01:23.741Z,100379.84
2022-08-17T20:03:55.352Z,100382.78
2022-08-17T20:06:27.433Z,100379.34
2022-08-17T20:08:59.003Z,100376.03
2022-08-17T20:11:31.127Z,100372.03
2022-08-17T20:14:02.668Z,100373.72
2022-08-17T20:16:34.588Z,100363.47
2022-08-17T20:19:06.142Z,100377.03
2022-08-17T20:21:37.990Z,100366.31
2022-08-17T20:24:09.545Z,100379.09
2022-08-17T20:26:41.126Z,100378.97
2022-08-17T20:29:39.815Z,100378.16
2022-08-17T20:32:12.692Z,100378.00
2022-08-17T20:34:44.226Z,100378.69
2022-08-17T20:37:16.110Z,100377.78
2022-08-17T20:39:47.636Z,100373.97
2022-08-17T20:42:19.440Z,100379.78
2022-08-17T20:44:50.956Z,100377.25
2022-08-17T20:47:27.217Z,100379.88
2022-08-17T20:49:58.968Z,100380.09
2022-08-17T20:52:30.856Z,100387.03
2022-08-17T20:55:02.981Z,100393.97
2022-08-17T20:57:34.922Z,100381.75
2022-08-17T21:00:14.742Z,100382.41
2022-08-17T21:02:46.310Z,100386.16
2022-08-17T21:05:18.164Z,100380.91
2022-08-17T21:07:50.472Z,100389.44
2022-08-17T21:10:22.187Z,100379.31
2022-08-17T21:12:53.711Z,100389.78
2022-08-17T21:15:28.840Z,100383.38
2022-08-17T21:18:00.728Z,100393.38
2022-08-17T21:20:32.842Z,100385.84
2022-08-17T21:23:05.176Z,100393.94
2022-08-17T21:25:37.455Z,100386.72
2022-08-17T21:28:09.239Z,100398.31
2022-08-17T21:30:44.717Z,100402.63
2022-08-17T21:33:16.310Z,100408.28
2022-08-17T21:35:48.770Z,100398.34
2022-08-17T21:38:20.359Z,100403.13
2022-08-17T21:40:53.017Z,100400.41
2022-08-17T21:43:24.533Z,100397.88
2022-08-17T21:45:56.400Z,100398.22
2022-08-17T21:48:28.396Z,100397.28
2022-08-17T21:51:00.831Z,100402.75
2022-08-17T21:53:33.366Z,100406.81
2022-08-17T21:56:05.037Z,100404.75
2022-08-17T21:58:39.424Z,100402.19
2022-08-17T22:01:11.057Z,100405.09
2022-08-17T22:03:43.125Z,100408.97
2022-08-17T22:06:14.656Z,100412.81
2022-08-17T22:08:46.686Z,100412.22
2022-08-17T22:11:18.531Z,100275.19
2022-08-17T22:13:50.494Z,100409.53
2022-08-17T22:16:29.853Z,100410.19
2022-08-17T22:19:01.882Z,100416.78
2022-08-17T22:21:33.420Z,100414.91
2022-08-17T22:24:05.299Z,100411.34
2022-08-17T22:26:36.848Z,100415.88
2022-08-17T22:29:08.980Z,100419.25
2022-08-17T22:31:40.508Z,100417.19
2022-08-17T22:34:12.456Z,100413.03
2022-08-17T22:36:43.975Z,100416.91
2022-08-17T22:39:15.816Z,100411.94
2022-08-17T22:41:48.112Z,100405.41
2022-08-17T22:44:20.060Z,100417.25
2022-08-17T22:46:51.664Z,100407.81
2022-08-17T22:49:23.610Z,100418.41
2022-08-17T22:51:55.152Z,100418.75
2022-08-17T22:54:45.881Z,100417.78
2022-08-17T22:57:35.892Z,100425.34
2022-08-17T23:00:07.786Z,100422.47
2022-08-17T23:02:51.190Z,100415.09
2022-08-17T23:05:27.484Z,100416.53
2022-08-17T23:07:59.006Z,100426.47
2022-08-17T23:10:30.923Z,100420.69
2022-08-17T23:13:02.453Z,100418.47
2022-08-17T23:15:34.473Z,100416.69
2022-08-17T23:18:06.016Z,100421.66
2022-08-17T23:20:37.915Z,100417.00
2022-08-17T23:23:09.450Z,100419.25
2022-08-17T23:25:41.319Z,100406.75
2022-08-17T23:28:12.978Z,100413.13
2022-08-17T23:30:44.921Z,100403.50
2022-08-17T23:33:16.433Z,100409.94
2022-08-17T23:35:48.316Z,100402.56
2022-08-17T23:38:19.864Z,100408.31
2022-08-17T23:40:51.735Z,100404.94
2022-08-17T23:43:24.781Z,100411.53
2022-08-17T23:45:58.402Z,100403.19
2022-08-17T23:48:35.897Z,100401.75
2022-08-17T23:51:09.144Z,100401.44
2022-08-17T23:53:42.323Z,100400.16
2022-08-17T23:56:13.860Z,100402.41
2022-08-17T23:58:45.847Z,100402.25
